sensor_id;sensor_type;location;lat;lon;timestamp;P1;durP1;ratioP1;P2;durP2;ratioP2
60478;SDS011;46321;48.398;11.754;2023-05-27T00:01:09;13.02;;;7.78;;
60478;SDS011;46321;48.398;11.754;2023-05-27T00:03:34;11.27;;;7.28;;
60478;SDS011;46321;48.398;11.754;2023-05-27T00:06:00;12.32;;;7.00;;
60478;SDS011;46321;48.398;11.754;2023-05-27T00:08:26;12.65;;;7.65;;
60478;SDS011;46321;48.398;11.754;2023-05-27T00:10:51;11.85;;;7.30;;
60478;SDS011;46321;48.398;11.754;2023-05-27T00:13:16;15.13;;;7.05;;
60478;SDS011;46321;48.398;11.754;2023-05-27T00:15:41;10.60;;;7.07;;
60478;SDS011;46321;48.398;11.754;2023-05-27T00:18:07;10.57;;;7.05;;
60478;SDS011;46321;48.398;11.754;2023-05-27T00:20:33;13.15;;;7.65;;
60478;SDS011;46321;48.398;11.754;2023-05-27T00:22:59;12.25;;;7.53;;
60478;SDS011;46321;48.398;11.754;2023-05-27T00:25:25;10.68;;;7.20;;
60478;SDS011;46321;48.398;11.754;2023-05-27T00:27:50;10.88;;;7.20;;
60478;SDS011;46321;48.398;11.754;2023-05-27T00:30:16;14.23;;;6.90;;
60478;SDS011;46321;48.398;11.754;2023-05-27T00:32:41;14.60;;;7.40;;
60478;SDS011;46321;48.398;11.754;2023-05-27T00:35:07;12.18;;;6.90;;
60478;SDS011;46321;48.398;11.754;2023-05-27T00:37:33;16.33;;;7.30;;
60478;SDS011;46321;48.398;11.754;2023-05-27T00:39:58;11.23;;;6.78;;
60478;SDS011;46321;48.398;11.754;2023-05-27T00:42:23;11.95;;;7.47;;
60478;SDS011;46321;48.398;11.754;2023-05-27T00:44:49;11.38;;;7.18;;
60478;SDS011;46321;48.398;11.754;2023-05-27T00:47:14;11.93;;;6.90;;
60478;SDS011;46321;48.398;11.754;2023-05-27T00:49:41;13.95;;;7.75;;
60478;SDS011;46321;48.398;11.754;2023-05-27T00:52:07;12.32;;;6.97;;
60478;SDS011;46321;48.398;11.754;2023-05-27T00:54:33;10.38;;;7.40;;
60478;SDS011;46321;48.398;11.754;2023-05-27T00:56:58;12.02;;;7.72;;
60478;SDS011;46321;48.398;11.754;2023-05-27T00:59:23;10.98;;;7.03;;
60478;SDS011;46321;48.398;11.754;2023-05-27T01:01:49;11.50;;;7.28;;
60478;SDS011;46321;48.398;11.754;2023-05-27T01:04:15;12.05;;;6.95;;
60478;SDS011;46321;48.398;11.754;2023-05-27T01:06:44;14.25;;;7.55;;
60478;SDS011;46321;48.398;11.754;2023-05-27T01:12:14;11.27;;;7.35;;
60478;SDS011;46321;48.398;11.754;2023-05-27T01:14:43;12.50;;;6.82;;
60478;SDS011;46321;48.398;11.754;2023-05-27T01:17:10;12.43;;;7.47;;
60478;SDS011;46321;48.398;11.754;2023-05-27T01:19:37;13.63;;;7.10;;
60478;SDS011;46321;48.398;11.754;2023-05-27T01:22:10;12.00;;;6.77;;
60478;SDS011;46321;48.398;11.754;2023-05-27T01:24:37;13.20;;;7.00;;
60478;SDS011;46321;48.398;11.754;2023-05-27T01:27:02;13.17;;;6.67;;
60478;SDS011;46321;48.398;11.754;2023-05-27T01:29:28;14.15;;;7.65;;
60478;SDS011;46321;48.398;11.754;2023-05-27T01:32:41;13.48;;;6.85;;
60478;SDS011;46321;48.398;11.754;2023-05-27T01:34:47;10.90;;;6.95;;
60478;SDS011;46321;48.398;11.754;2023-05-27T01:37:16;12.68;;;6.95;;
60478;SDS011;46321;48.398;11.754;2023-05-27T01:39:44;12.40;;;7.20;;
60478;SDS011;46321;48.398;11.754;2023-05-27T01:42:11;10.70;;;6.90;;
60478;SDS011;46321;48.398;11.754;2023-05-27T01:44:37;13.32;;;7.82;;
60478;SDS011;46321;48.398;11.754;2023-05-27T01:47:04;14.30;;;7.38;;
60478;SDS011;46321;48.398;11.754;2023-05-27T01:49:29;12.95;;;7.18;;
60478;SDS011;46321;48.398;11.754;2023-05-27T01:51:55;10.68;;;7.13;;
60478;SDS011;46321;48.398;11.754;2023-05-27T01:54:20;9.45;;;6.72;;
60478;SDS011;46321;48.398;11.754;2023-05-27T01:56:46;12.15;;;7.15;;
60478;SDS011;46321;48.398;11.754;2023-05-27T01:59:11;11.57;;;6.95;;
60478;SDS011;46321;48.398;11.754;2023-05-27T02:01:36;11.52;;;7.25;;
60478;SDS011;46321;48.398;11.754;2023-05-27T02:04:01;11.63;;;6.83;;
60478;SDS011;46321;48.398;11.754;2023-05-27T02:06:28;10.68;;;6.88;;
60478;SDS011;46321;48.398;11.754;2023-05-27T02:08:54;17.95;;;7.53;;
60478;SDS011;46321;48.398;11.754;2023-05-27T02:11:20;9.98;;;6.85;;
60478;SDS011;46321;48.398;11.754;2023-05-27T02:13:45;11.90;;;6.88;;
60478;SDS011;46321;48.398;11.754;2023-05-27T02:16:10;13.07;;;6.35;;
60478;SDS011;46321;48.398;11.754;2023-05-27T02:18:37;10.60;;;7.00;;
60478;SDS011;46321;48.398;11.754;2023-05-27T02:21:03;12.75;;;6.82;;
60478;SDS011;46321;48.398;11.754;2023-05-27T02:23:31;10.88;;;6.68;;
60478;SDS011;46321;48.398;11.754;2023-05-27T02:25:57;12.38;;;7.00;;
60478;SDS011;46321;48.398;11.754;2023-05-27T02:28:22;17.92;;;7.90;;
60478;SDS011;46321;48.398;11.754;2023-05-27T02:30:47;16.33;;;6.87;;
60478;SDS011;46321;48.398;11.754;2023-05-27T02:33:13;11.25;;;6.65;;
60478;SDS011;46321;48.398;11.754;2023-05-27T02:35:38;10.83;;;6.37;;
60478;SDS011;46321;48.398;11.754;2023-05-27T02:38:03;11.20;;;6.20;;
60478;SDS011;46321;48.398;11.754;2023-05-27T02:40:29;13.45;;;6.55;;
60478;SDS011;46321;48.398;11.754;2023-05-27T02:42:57;11.18;;;6.55;;
60478;SDS011;46321;48.398;11.754;2023-05-27T02:45:23;13.73;;;6.85;;
60478;SDS011;46321;48.398;11.754;2023-05-27T02:47:49;11.90;;;6.70;;
60478;SDS011;46321;48.398;11.754;2023-05-27T02:50:15;10.18;;;6.47;;
60478;SDS011;46321;48.398;11.754;2023-05-27T02:52:40;12.18;;;6.43;;
60478;SDS011;46321;48.398;11.754;2023-05-27T02:55:06;10.07;;;5.90;;
60478;SDS011;46321;48.398;11.754;2023-05-27T02:57:32;8.80;;;6.50;;
60478;SDS011;46321;48.398;11.754;2023-05-27T02:59:57;12.55;;;7.00;;
60478;SDS011;46321;48.398;11.754;2023-05-27T03:02:22;11.75;;;6.95;;
60478;SDS011;46321;48.398;11.754;2023-05-27T03:04:48;13.00;;;6.55;;
60478;SDS011;46321;48.398;11.754;2023-05-27T03:07:13;15.70;;;7.63;;
60478;SDS011;46321;48.398;11.754;2023-05-27T03:09:39;12.05;;;6.82;;
60478;SDS011;46321;48.398;11.754;2023-05-27T03:12:04;12.30;;;6.65;;
60478;SDS011;46321;48.398;11.754;2023-05-27T03:14:30;10.57;;;6.70;;
60478;SDS011;46321;48.398;11.754;2023-05-27T03:16:56;11.43;;;6.10;;
60478;SDS011;46321;48.398;11.754;2023-05-27T03:19:21;11.23;;;6.63;;
60478;SDS011;46321;48.398;11.754;2023-05-27T03:21:46;10.27;;;6.63;;
60478;SDS011;46321;48.398;11.754;2023-05-27T03:24:12;10.35;;;6.28;;
60478;SDS011;46321;48.398;11.754;2023-05-27T03:26:38;10.20;;;6.22;;
60478;SDS011;46321;48.398;11.754;2023-05-27T03:29:03;12.65;;;6.15;;
60478;SDS011;46321;48.398;11.754;2023-05-27T03:31:29;9.25;;;6.22;;
60478;SDS011;46321;48.398;11.754;2023-05-27T03:33:54;16.70;;;6.22;;
60478;SDS011;46321;48.398;11.754;2023-05-27T03:36:19;14.10;;;6.35;;
60478;SDS011;46321;48.398;11.754;2023-05-27T03:38:45;9.98;;;5.88;;
60478;SDS011;46321;48.398;11.754;2023-05-27T03:41:11;14.30;;;7.00;;
60478;SDS011;46321;48.398;11.754;2023-05-27T03:43:37;9.00;;;6.28;;
60478;SDS011;46321;48.398;11.754;2023-05-27T03:46:02;10.87;;;6.40;;
60478;SDS011;46321;48.398;11.754;2023-05-27T03:48:27;12.40;;;6.28;;
60478;SDS011;46321;48.398;11.754;2023-05-27T03:50:52;9.52;;;6.15;;
60478;SDS011;46321;48.398;11.754;2023-05-27T03:53:18;13.25;;;6.57;;
60478;SDS011;46321;48.398;11.754;2023-05-27T03:55:43;12.57;;;6.43;;
60478;SDS011;46321;48.398;11.754;2023-05-27T03:58:08;13.13;;;6.30;;
60478;SDS011;46321;48.398;11.754;2023-05-27T04:00:33;17.65;;;6.60;;
60478;SDS011;46321;48.398;11.754;2023-05-27T04:03:01;12.48;;;6.82;;
60478;SDS011;46321;48.398;11.754;2023-05-27T04:05:26;8.70;;;5.78;;
60478;SDS011;46321;48.398;11.754;2023-05-27T04:07:51;11.15;;;6.53;;
60478;SDS011;46321;48.398;11.754;2023-05-27T04:10:17;10.23;;;5.60;;
60478;SDS011;46321;48.398;11.754;2023-05-27T04:12:42;10.18;;;6.00;;
60478;SDS011;46321;48.398;11.754;2023-05-27T04:15:08;9.57;;;5.95;;
60478;SDS011;46321;48.398;11.754;2023-05-27T04:17:33;10.82;;;6.05;;
60478;SDS011;46321;48.398;11.754;2023-05-27T04:19:59;12.32;;;6.40;;
60478;SDS011;46321;48.398;11.754;2023-05-27T04:22:24;8.68;;;5.93;;
60478;SDS011;46321;48.398;11.754;2023-05-27T04:24:50;13.48;;;6.10;;
60478;SDS011;46321;48.398;11.754;2023-05-27T04:27:17;12.65;;;5.97;;
60478;SDS011;46321;48.398;11.754;2023-05-27T04:29:44;9.55;;;5.85;;
60478;SDS011;46321;48.398;11.754;2023-05-27T04:32:10;14.50;;;6.25;;
60478;SDS011;46321;48.398;11.754;2023-05-27T04:34:37;11.85;;;6.47;;
60478;SDS011;46321;48.398;11.754;2023-05-27T04:37:06;10.70;;;5.97;;
60478;SDS011;46321;48.398;11.754;2023-05-27T04:39:33;11.65;;;5.95;;
60478;SDS011;46321;48.398;11.754;2023-05-27T04:41:58;11.20;;;6.28;;
60478;SDS011;46321;48.398;11.754;2023-05-27T04:44:24;13.55;;;6.05;;
60478;SDS011;46321;48.398;11.754;2023-05-27T04:46:51;9.27;;;5.85;;
60478;SDS011;46321;48.398;11.754;2023-05-27T04:49:17;9.55;;;6.07;;
60478;SDS011;46321;48.398;11.754;2023-05-27T04:51:42;12.52;;;6.38;;
60478;SDS011;46321;48.398;11.754;2023-05-27T04:54:09;13.73;;;6.47;;
60478;SDS011;46321;48.398;11.754;2023-05-27T04:56:35;15.02;;;7.68;;
60478;SDS011;46321;48.398;11.754;2023-05-27T04:59:01;11.20;;;5.65;;
60478;SDS011;46321;48.398;11.754;2023-05-27T05:01:26;15.02;;;6.22;;
60478;SDS011;46321;48.398;11.754;2023-05-27T05:03:54;10.95;;;5.65;;
60478;SDS011;46321;48.398;11.754;2023-05-27T05:06:37;10.17;;;5.10;;
60478;SDS011;46321;48.398;11.754;2023-05-27T05:09:04;12.32;;;5.63;;
60478;SDS011;46321;48.398;11.754;2023-05-27T05:11:30;12.75;;;5.32;;
60478;SDS011;46321;48.398;11.754;2023-05-27T05:13:55;9.50;;;5.85;;
60478;SDS011;46321;48.398;11.754;2023-05-27T05:16:21;9.65;;;5.15;;
60478;SDS011;46321;48.398;11.754;2023-05-27T05:18:46;8.97;;;5.20;;
60478;SDS011;46321;48.398;11.754;2023-05-27T05:21:11;12.57;;;5.30;;
60478;SDS011;46321;48.398;11.754;2023-05-27T05:23:37;7.75;;;4.93;;
60478;SDS011;46321;48.398;11.754;2023-05-27T05:26:03;12.40;;;5.35;;
60478;SDS011;46321;48.398;11.754;2023-05-27T05:28:31;10.02;;;5.00;;
60478;SDS011;46321;48.398;11.754;2023-05-27T05:30:57;9.75;;;5.00;;
60478;SDS011;46321;48.398;11.754;2023-05-27T05:33:22;6.93;;;5.30;;
60478;SDS011;46321;48.398;11.754;2023-05-27T05:35:48;7.73;;;4.80;;
60478;SDS011;46321;48.398;11.754;2023-05-27T05:38:13;11.33;;;5.27;;
60478;SDS011;46321;48.398;11.754;2023-05-27T05:40:38;9.57;;;4.88;;
60478;SDS011;46321;48.398;11.754;2023-05-27T05:43:03;10.77;;;4.85;;
60478;SDS011;46321;48.398;11.754;2023-05-27T05:45:29;10.88;;;4.95;;
60478;SDS011;46321;48.398;11.754;2023-05-27T05:47:55;8.55;;;4.35;;
60478;SDS011;46321;48.398;11.754;2023-05-27T05:50:22;9.75;;;4.88;;
60478;SDS011;46321;48.398;11.754;2023-05-27T05:52:47;9.73;;;4.67;;
60478;SDS011;46321;48.398;11.754;2023-05-27T05:55:13;13.55;;;4.68;;
60478;SDS011;46321;48.398;11.754;2023-05-27T05:57:39;13.75;;;5.20;;
60478;SDS011;46321;48.398;11.754;2023-05-27T06:00:04;11.20;;;4.60;;
60478;SDS011;46321;48.398;11.754;2023-05-27T06:02:30;9.98;;;4.93;;
60478;SDS011;46321;48.398;11.754;2023-05-27T06:04:55;10.40;;;4.88;;
60478;SDS011;46321;48.398;11.754;2023-05-27T06:07:21;10.90;;;4.97;;
60478;SDS011;46321;48.398;11.754;2023-05-27T06:09:46;14.93;;;4.93;;
60478;SDS011;46321;48.398;11.754;2023-05-27T06:12:12;9.57;;;4.78;;
60478;SDS011;46321;48.398;11.754;2023-05-27T06:14:38;11.10;;;4.80;;
60478;SDS011;46321;48.398;11.754;2023-05-27T06:17:03;12.25;;;5.30;;
60478;SDS011;46321;48.398;11.754;2023-05-27T06:19:28;9.68;;;5.47;;
60478;SDS011;46321;48.398;11.754;2023-05-27T06:21:54;7.47;;;4.70;;
60478;SDS011;46321;48.398;11.754;2023-05-27T06:24:19;10.35;;;5.10;;
60478;SDS011;46321;48.398;11.754;2023-05-27T06:26:44;6.90;;;4.25;;
60478;SDS011;46321;48.398;11.754;2023-05-27T06:29:10;9.30;;;4.32;;
60478;SDS011;46321;48.398;11.754;2023-05-27T06:31:35;11.10;;;4.80;;
60478;SDS011;46321;48.398;11.754;2023-05-27T06:34:00;11.10;;;4.60;;
60478;SDS011;46321;48.398;11.754;2023-05-27T06:36:25;8.67;;;4.43;;
60478;SDS011;46321;48.398;11.754;2023-05-27T06:38:51;9.18;;;4.32;;
60478;SDS011;46321;48.398;11.754;2023-05-27T06:41:16;12.68;;;4.78;;
60478;SDS011;46321;48.398;11.754;2023-05-27T06:43:42;6.90;;;4.32;;
60478;SDS011;46321;48.398;11.754;2023-05-27T06:46:07;12.48;;;4.40;;
60478;SDS011;46321;48.398;11.754;2023-05-27T06:48:32;10.13;;;4.53;;
60478;SDS011;46321;48.398;11.754;2023-05-27T06:50:58;9.87;;;4.47;;
60478;SDS011;46321;48.398;11.754;2023-05-27T06:53:24;10.65;;;4.18;;
60478;SDS011;46321;48.398;11.754;2023-05-27T06:55:49;10.73;;;4.23;;
60478;SDS011;46321;48.398;11.754;2023-05-27T06:58:15;10.77;;;4.20;;
60478;SDS011;46321;48.398;11.754;2023-05-27T07:00:40;9.07;;;4.50;;
60478;SDS011;46321;48.398;11.754;2023-05-27T07:03:05;11.48;;;4.40;;
60478;SDS011;46321;48.398;11.754;2023-05-27T07:05:31;8.63;;;3.67;;
60478;SDS011;46321;48.398;11.754;2023-05-27T07:07:56;7.90;;;4.50;;
60478;SDS011;46321;48.398;11.754;2023-05-27T07:10:21;9.47;;;3.90;;
60478;SDS011;46321;48.398;11.754;2023-05-27T07:12:46;8.07;;;4.20;;
60478;SDS011;46321;48.398;11.754;2023-05-27T07:15:12;10.23;;;4.40;;
60478;SDS011;46321;48.398;11.754;2023-05-27T07:17:37;10.63;;;4.30;;
60478;SDS011;46321;48.398;11.754;2023-05-27T07:20:02;10.48;;;3.88;;
60478;SDS011;46321;48.398;11.754;2023-05-27T07:22:28;8.52;;;3.88;;
60478;SDS011;46321;48.398;11.754;2023-05-27T07:24:54;7.45;;;3.97;;
60478;SDS011;46321;48.398;11.754;2023-05-27T07:27:19;11.60;;;4.53;;
60478;SDS011;46321;48.398;11.754;2023-05-27T07:29:44;11.77;;;4.43;;
60478;SDS011;46321;48.398;11.754;2023-05-27T07:32:09;8.93;;;3.97;;
60478;SDS011;46321;48.398;11.754;2023-05-27T07:34:35;7.80;;;4.00;;
60478;SDS011;46321;48.398;11.754;2023-05-27T07:37:00;8.82;;;3.92;;
60478;SDS011;46321;48.398;11.754;2023-05-27T07:39:25;8.60;;;4.07;;
60478;SDS011;46321;48.398;11.754;2023-05-27T07:41:50;8.73;;;3.97;;
60478;SDS011;46321;48.398;11.754;2023-05-27T07:44:17;9.32;;;3.67;;
60478;SDS011;46321;48.398;11.754;2023-05-27T07:46:43;12.50;;;4.20;;
60478;SDS011;46321;48.398;11.754;2023-05-27T07:49:08;8.40;;;3.90;;
60478;SDS011;46321;48.398;11.754;2023-05-27T07:51:33;15.70;;;5.82;;
60478;SDS011;46321;48.398;11.754;2023-05-27T07:53:59;8.87;;;3.73;;
60478;SDS011;46321;48.398;11.754;2023-05-27T07:56:24;10.95;;;3.92;;
60478;SDS011;46321;48.398;11.754;2023-05-27T07:58:49;5.57;;;3.30;;
60478;SDS011;46321;48.398;11.754;2023-05-27T08:01:15;7.72;;;3.80;;
60478;SDS011;46321;48.398;11.754;2023-05-27T08:03:40;8.25;;;4.10;;
60478;SDS011;46321;48.398;11.754;2023-05-27T08:06:05;7.87;;;3.87;;
60478;SDS011;46321;48.398;11.754;2023-05-27T08:08:30;9.23;;;3.83;;
60478;SDS011;46321;48.398;11.754;2023-05-27T08:10:56;9.03;;;3.57;;
60478;SDS011;46321;48.398;11.754;2023-05-27T08:13:22;8.90;;;4.07;;
60478;SDS011;46321;48.398;11.754;2023-05-27T08:15:47;10.80;;;4.38;;
60478;SDS011;46321;48.398;11.754;2023-05-27T08:18:12;13.07;;;4.00;;
60478;SDS011;46321;48.398;11.754;2023-05-27T08:20:38;7.63;;;3.40;;
60478;SDS011;46321;48.398;11.754;2023-05-27T08:23:03;12.63;;;4.17;;
60478;SDS011;46321;48.398;11.754;2023-05-27T08:25:29;9.48;;;3.55;;
60478;SDS011;46321;48.398;11.754;2023-05-27T08:27:55;9.00;;;4.25;;
60478;SDS011;46321;48.398;11.754;2023-05-27T08:30:27;8.27;;;3.97;;
60478;SDS011;46321;48.398;11.754;2023-05-27T08:32:53;7.40;;;4.28;;
60478;SDS011;46321;48.398;11.754;2023-05-27T08:35:19;11.23;;;4.00;;
60478;SDS011;46321;48.398;11.754;2023-05-27T08:37:45;13.45;;;4.22;;
60478;SDS011;46321;48.398;11.754;2023-05-27T08:40:12;9.70;;;3.92;;
60478;SDS011;46321;48.398;11.754;2023-05-27T08:42:39;12.68;;;3.75;;
60478;SDS011;46321;48.398;11.754;2023-05-27T08:45:05;10.15;;;4.07;;
60478;SDS011;46321;48.398;11.754;2023-05-27T08:47:31;8.30;;;4.10;;
60478;SDS011;46321;48.398;11.754;2023-05-27T08:49:57;8.05;;;4.10;;
60478;SDS011;46321;48.398;11.754;2023-05-27T08:52:26;9.10;;;4.25;;
60478;SDS011;46321;48.398;11.754;2023-05-27T08:54:53;10.20;;;3.88;;
60478;SDS011;46321;48.398;11.754;2023-05-27T08:57:20;8.68;;;3.97;;
60478;SDS011;46321;48.398;11.754;2023-05-27T08:59:46;10.95;;;3.85;;
60478;SDS011;46321;48.398;11.754;2023-05-27T09:02:12;9.20;;;3.65;;
60478;SDS011;46321;48.398;11.754;2023-05-27T09:04:39;7.93;;;4.00;;
60478;SDS011;46321;48.398;11.754;2023-05-27T09:07:05;9.93;;;4.15;;
60478;SDS011;46321;48.398;11.754;2023-05-27T09:09:31;10.73;;;4.47;;
60478;SDS011;46321;48.398;11.754;2023-05-27T09:11:59;7.93;;;4.25;;
60478;SDS011;46321;48.398;11.754;2023-05-27T09:14:27;8.13;;;3.88;;
60478;SDS011;46321;48.398;11.754;2023-05-27T09:16:54;7.55;;;3.78;;
60478;SDS011;46321;48.398;11.754;2023-05-27T09:19:19;6.72;;;3.97;;
60478;SDS011;46321;48.398;11.754;2023-05-27T09:21:45;9.15;;;3.90;;
60478;SDS011;46321;48.398;11.754;2023-05-27T09:24:11;7.38;;;3.70;;
60478;SDS011;46321;48.398;11.754;2023-05-27T09:26:37;9.10;;;4.38;;
60478;SDS011;46321;48.398;11.754;2023-05-27T09:29:06;8.60;;;4.00;;
60478;SDS011;46321;48.398;11.754;2023-05-27T09:31:32;7.32;;;3.90;;
60478;SDS011;46321;48.398;11.754;2023-05-27T09:34:08;13.75;;;4.80;;
60478;SDS011;46321;48.398;11.754;2023-05-27T09:36:44;11.63;;;4.15;;
60478;SDS011;46321;48.398;11.754;2023-05-27T09:39:11;10.45;;;4.20;;
60478;SDS011;46321;48.398;11.754;2023-05-27T09:41:37;9.02;;;4.13;;
60478;SDS011;46321;48.398;11.754;2023-05-27T09:44:04;8.48;;;3.80;;
60478;SDS011;46321;48.398;11.754;2023-05-27T09:46:30;12.25;;;4.38;;
60478;SDS011;46321;48.398;11.754;2023-05-27T09:48:57;8.38;;;4.22;;
60478;SDS011;46321;48.398;11.754;2023-05-27T09:51:23;5.65;;;3.72;;
60478;SDS011;46321;48.398;11.754;2023-05-27T09:53:49;15.13;;;4.13;;
60478;SDS011;46321;48.398;11.754;2023-05-27T09:56:18;9.68;;;4.50;;
60478;SDS011;46321;48.398;11.754;2023-05-27T09:58:43;8.30;;;4.25;;
60478;SDS011;46321;48.398;11.754;2023-05-27T10:01:09;7.95;;;4.18;;
60478;SDS011;46321;48.398;11.754;2023-05-27T10:03:36;8.20;;;4.25;;
60478;SDS011;46321;48.398;11.754;2023-05-27T10:06:02;11.90;;;4.40;;
60478;SDS011;46321;48.398;11.754;2023-05-27T10:08:29;9.30;;;4.40;;
60478;SDS011;46321;48.398;11.754;2023-05-27T10:10:55;9.77;;;4.60;;
60478;SDS011;46321;48.398;11.754;2023-05-27T10:13:20;10.73;;;4.40;;
60478;SDS011;46321;48.398;11.754;2023-05-27T10:15:47;6.68;;;4.00;;
60478;SDS011;46321;48.398;11.754;2023-05-27T10:18:29;6.93;;;4.03;;
60478;SDS011;46321;48.398;11.754;2023-05-27T10:20:56;9.05;;;4.53;;
60478;SDS011;46321;48.398;11.754;2023-05-27T10:23:26;9.40;;;4.50;;
60478;SDS011;46321;48.398;11.754;2023-05-27T10:25:56;10.48;;;4.97;;
60478;SDS011;46321;48.398;11.754;2023-05-27T10:28:29;8.73;;;4.10;;
60478;SDS011;46321;48.398;11.754;2023-05-27T10:33:38;8.77;;;4.50;;
60478;SDS011;46321;48.398;11.754;2023-05-27T10:36:09;9.15;;;4.30;;
60478;SDS011;46321;48.398;11.754;2023-05-27T10:38:35;11.50;;;4.60;;
60478;SDS011;46321;48.398;11.754;2023-05-27T10:41:01;9.75;;;4.68;;
60478;SDS011;46321;48.398;11.754;2023-05-27T10:43:27;8.18;;;4.65;;
60478;SDS011;46321;48.398;11.754;2023-05-27T10:48:38;9.50;;;4.65;;
60478;SDS011;46321;48.398;11.754;2023-05-27T10:51:06;7.85;;;4.18;;
60478;SDS011;46321;48.398;11.754;2023-05-27T10:53:34;9.45;;;4.22;;
60478;SDS011;46321;48.398;11.754;2023-05-27T10:56:00;8.65;;;3.67;;
60478;SDS011;46321;48.398;11.754;2023-05-27T10:58:26;7.13;;;4.05;;
60478;SDS011;46321;48.398;11.754;2023-05-27T11:00:52;6.28;;;3.38;;
60478;SDS011;46321;48.398;11.754;2023-05-27T11:06:01;6.00;;;3.72;;
60478;SDS011;46321;48.398;11.754;2023-05-27T11:08:27;9.70;;;3.88;;
60478;SDS011;46321;48.398;11.754;2023-05-27T11:10:59;8.50;;;3.70;;
60478;SDS011;46321;48.398;11.754;2023-05-27T11:16:05;8.68;;;4.07;;
60478;SDS011;46321;48.398;11.754;2023-05-27T11:21:04;10.07;;;4.75;;
60478;SDS011;46321;48.398;11.754;2023-05-27T11:23:36;6.40;;;3.63;;
60478;SDS011;46321;48.398;11.754;2023-05-27T11:26:11;10.50;;;4.13;;
60478;SDS011;46321;48.398;11.754;2023-05-27T11:28:37;5.85;;;3.83;;
60478;SDS011;46321;48.398;11.754;2023-05-27T11:31:03;6.32;;;4.05;;
60478;SDS011;46321;48.398;11.754;2023-05-27T11:33:30;6.63;;;3.75;;
60478;SDS011;46321;48.398;11.754;2023-05-27T11:36:03;5.38;;;3.50;;
60478;SDS011;46321;48.398;11.754;2023-05-27T11:38:38;7.88;;;3.90;;
60478;SDS011;46321;48.398;11.754;2023-05-27T11:41:10;6.18;;;3.72;;
60478;SDS011;46321;48.398;11.754;2023-05-27T11:43:35;10.23;;;3.90;;
60478;SDS011;46321;48.398;11.754;2023-05-27T11:46:03;9.00;;;4.17;;
60478;SDS011;46321;48.398;11.754;2023-05-27T11:48:29;7.43;;;3.88;;
60478;SDS011;46321;48.398;11.754;2023-05-27T11:50:54;10.18;;;3.67;;
60478;SDS011;46321;48.398;11.754;2023-05-27T11:53:20;6.50;;;2.95;;
60478;SDS011;46321;48.398;11.754;2023-05-27T11:55:45;5.67;;;3.20;;
60478;SDS011;46321;48.398;11.754;2023-05-27T11:58:10;6.53;;;3.50;;
60478;SDS011;46321;48.398;11.754;2023-05-27T12:00:36;8.90;;;3.80;;
60478;SDS011;46321;48.398;11.754;2023-05-27T12:03:01;11.73;;;4.10;;
60478;SDS011;46321;48.398;11.754;2023-05-27T12:05:26;7.57;;;3.97;;
60478;SDS011;46321;48.398;11.754;2023-05-27T12:07:51;6.37;;;3.37;;
60478;SDS011;46321;48.398;11.754;2023-05-27T12:10:17;9.20;;;3.70;;
60478;SDS011;46321;48.398;11.754;2023-05-27T12:12:42;6.73;;;3.37;;
60478;SDS011;46321;48.398;11.754;2023-05-27T12:15:09;7.00;;;4.00;;
60478;SDS011;46321;48.398;11.754;2023-05-27T12:17:34;7.68;;;4.00;;
60478;SDS011;46321;48.398;11.754;2023-05-27T12:19:59;11.73;;;3.80;;
60478;SDS011;46321;48.398;11.754;2023-05-27T12:22:25;9.77;;;3.65;;
60478;SDS011;46321;48.398;11.754;2023-05-27T12:24:50;4.95;;;3.20;;
60478;SDS011;46321;48.398;11.754;2023-05-27T12:27:17;4.85;;;3.33;;
60478;SDS011;46321;48.398;11.754;2023-05-27T12:29:43;10.90;;;3.88;;
60478;SDS011;46321;48.398;11.754;2023-05-27T12:32:08;8.77;;;3.30;;
60478;SDS011;46321;48.398;11.754;2023-05-27T12:34:34;8.90;;;3.60;;
60478;SDS011;46321;48.398;11.754;2023-05-27T12:36:59;6.40;;;3.37;;
60478;SDS011;46321;48.398;11.754;2023-05-27T12:39:25;7.53;;;3.45;;
60478;SDS011;46321;48.398;11.754;2023-05-27T12:41:50;5.57;;;3.10;;
60478;SDS011;46321;48.398;11.754;2023-05-27T12:44:15;5.88;;;3.20;;
60478;SDS011;46321;48.398;11.754;2023-05-27T12:46:40;7.82;;;3.47;;
60478;SDS011;46321;48.398;11.754;2023-05-27T12:49:06;6.10;;;3.45;;
60478;SDS011;46321;48.398;11.754;2023-05-27T12:51:33;5.78;;;3.10;;
60478;SDS011;46321;48.398;11.754;2023-05-27T12:53:58;8.90;;;3.72;;
60478;SDS011;46321;48.398;11.754;2023-05-27T12:56:23;8.67;;;3.03;;
60478;SDS011;46321;48.398;11.754;2023-05-27T12:58:49;7.10;;;3.80;;
60478;SDS011;46321;48.398;11.754;2023-05-27T13:01:14;7.82;;;3.35;;
60478;SDS011;46321;48.398;11.754;2023-05-27T13:03:40;6.40;;;3.10;;
60478;SDS011;46321;48.398;11.754;2023-05-27T13:06:06;6.00;;;3.30;;
60478;SDS011;46321;48.398;11.754;2023-05-27T13:08:31;9.88;;;3.10;;
60478;SDS011;46321;48.398;11.754;2023-05-27T13:10:56;10.97;;;3.53;;
60478;SDS011;46321;48.398;11.754;2023-05-27T13:13:21;9.77;;;4.07;;
60478;SDS011;46321;48.398;11.754;2023-05-27T13:15:47;5.20;;;3.10;;
60478;SDS011;46321;48.398;11.754;2023-05-27T13:18:12;7.53;;;3.17;;
60478;SDS011;46321;48.398;11.754;2023-05-27T13:20:37;7.88;;;3.50;;
60478;SDS011;46321;48.398;11.754;2023-05-27T13:23:03;6.47;;;3.33;;
60478;SDS011;46321;48.398;11.754;2023-05-27T13:25:28;6.38;;;2.97;;
60478;SDS011;46321;48.398;11.754;2023-05-27T13:27:55;11.25;;;3.42;;
60478;SDS011;46321;48.398;11.754;2023-05-27T13:30:21;7.30;;;3.22;;
60478;SDS011;46321;48.398;11.754;2023-05-27T13:32:46;7.47;;;3.10;;
60478;SDS011;46321;48.398;11.754;2023-05-27T13:35:12;6.80;;;3.17;;
60478;SDS011;46321;48.398;11.754;2023-05-27T13:37:40;7.68;;;3.55;;
60478;SDS011;46321;48.398;11.754;2023-05-27T13:40:06;5.80;;;3.20;;
60478;SDS011;46321;48.398;11.754;2023-05-27T13:42:32;6.63;;;3.08;;
60478;SDS011;46321;48.398;11.754;2023-05-27T13:44:58;6.57;;;3.00;;
60478;SDS011;46321;48.398;11.754;2023-05-27T13:47:23;5.93;;;3.20;;
60478;SDS011;46321;48.398;11.754;2023-05-27T13:49:48;7.87;;;3.03;;
60478;SDS011;46321;48.398;11.754;2023-05-27T13:52:14;5.88;;;3.03;;
60478;SDS011;46321;48.398;11.754;2023-05-27T13:54:40;5.68;;;3.17;;
60478;SDS011;46321;48.398;11.754;2023-05-27T13:57:05;5.55;;;2.53;;
60478;SDS011;46321;48.398;11.754;2023-05-27T13:59:31;8.05;;;2.85;;
60478;SDS011;46321;48.398;11.754;2023-05-27T14:01:56;5.28;;;2.80;;
60478;SDS011;46321;48.398;11.754;2023-05-27T14:04:21;6.93;;;2.90;;
60478;SDS011;46321;48.398;11.754;2023-05-27T14:06:46;6.57;;;2.83;;
60478;SDS011;46321;48.398;11.754;2023-05-27T14:09:12;7.63;;;3.33;;
60478;SDS011;46321;48.398;11.754;2023-05-27T14:11:37;4.85;;;2.90;;
60478;SDS011;46321;48.398;11.754;2023-05-27T14:14:03;6.78;;;2.95;;
60478;SDS011;46321;48.398;11.754;2023-05-27T14:16:28;6.30;;;3.07;;
60478;SDS011;46321;48.398;11.754;2023-05-27T14:18:53;8.83;;;5.23;;
60478;SDS011;46321;48.398;11.754;2023-05-27T14:21:19;10.00;;;3.17;;
60478;SDS011;46321;48.398;11.754;2023-05-27T14:23:44;6.90;;;2.97;;
60478;SDS011;46321;48.398;11.754;2023-05-27T14:26:09;8.32;;;3.00;;
60478;SDS011;46321;48.398;11.754;2023-05-27T14:28:35;6.22;;;3.05;;
60478;SDS011;46321;48.398;11.754;2023-05-27T14:31:01;6.50;;;3.17;;
60478;SDS011;46321;48.398;11.754;2023-05-27T14:33:26;6.32;;;2.67;;
60478;SDS011;46321;48.398;11.754;2023-05-27T14:35:51;8.60;;;3.43;;
60478;SDS011;46321;48.398;11.754;2023-05-27T14:38:17;5.28;;;2.92;;